createdAt,value
2018-04-17T13:47:06.305Z,20.47
2018-04-17T13:49:34.548Z,12.20
2018-04-17T13:52:02.792Z,16.70
2018-04-17T13:54:31.023Z,18.83
2018-04-17T13:56:59.260Z,27.33
2018-04-17T13:59:28.247Z,9.30
2018-04-17T14:01:57.287Z,8.10
2018-04-17T14:04:25.511Z,11.17
2018-04-17T14:06:53.749Z,8.10
2018-04-17T14:09:21.984Z,10.83
2018-04-17T14:11:50.212Z,7.67
2018-04-17T14:14:18.430Z,7.50
2018-04-17T14:16:46.655Z,13.30
2018-04-17T14:19:14.884Z,9.77
2018-04-17T14:21:43.116Z,10.00
2018-04-17T14:24:11.434Z,9.93
2018-04-17T14:26:39.693Z,4.33
2018-04-17T14:29:07.997Z,6.87
2018-04-17T14:31:36.264Z,8.37
2018-04-17T14:34:04.483Z,4.80
2018-04-17T14:36:32.747Z,3.83
2018-04-17T14:39:00.968Z,5.20
2018-04-17T14:41:30.155Z,4.40
2018-04-17T14:43:58.364Z,7.20
2018-04-17T14:46:26.659Z,4.60
2018-04-17T14:48:54.894Z,3.97
2018-04-17T14:51:23.888Z,4.47
2018-04-17T14:53:52.961Z,5.03
2018-04-17T14:56:21.132Z,3.87
2018-04-17T14:58:49.478Z,4.63
2018-04-17T15:01:17.706Z,4.47
2018-04-17T15:03:45.937Z,4.10
2018-04-17T15:06:14.156Z,4.70
2018-04-17T15:08:43.144Z,3.90
2018-04-17T15:11:12.233Z,3.47
2018-04-17T15:13:41.363Z,3.10
2018-04-17T15:16:09.597Z,3.95
2018-04-17T15:18:37.824Z,3.75
2018-04-17T15:21:06.028Z,3.37
2018-04-17T15:23:34.349Z,3.40
2018-04-17T15:26:02.506Z,4.30
2018-04-17T15:28:31.499Z,3.10
2018-04-17T15:31:00.485Z,5.22
2018-04-17T15:33:28.720Z,4.03
2018-04-17T15:35:56.936Z,5.43
2018-04-17T15:38:25.931Z,3.67
2018-04-17T15:40:54.920Z,3.60
2018-04-17T15:43:23.212Z,4.57
2018-04-17T15:45:52.204Z,6.00
2018-04-17T15:48:21.233Z,5.60
2018-04-17T15:50:49.478Z,2.93
2018-04-17T15:53:17.691Z,4.03
2018-04-17T15:55:45.887Z,3.87
2018-04-17T15:58:14.109Z,3.70
2018-04-17T16:00:42.343Z,3.90
2018-04-17T16:03:10.889Z,3.17
2018-04-17T16:05:39.796Z,3.30
2018-04-17T16:08:08.061Z,3.43
2018-04-17T16:10:36.276Z,4.00
2018-04-17T16:13:04.570Z,3.07
2018-04-17T16:15:32.764Z,3.33
2018-04-17T16:18:01.009Z,3.00
2018-04-17T16:20:30.049Z,3.43
2018-04-17T16:22:58.302Z,3.37
2018-04-17T16:25:27.294Z,3.30
2018-04-17T16:27:55.533Z,2.87
2018-04-17T16:30:23.745Z,3.57
2018-04-17T16:32:52.049Z,3.63
2018-04-17T16:35:20.267Z,4.10
2018-04-17T16:37:48.475Z,4.23
2018-04-17T16:40:16.719Z,4.00
2018-04-17T16:42:44.928Z,5.30
2018-04-17T16:45:13.148Z,3.40
2018-04-17T16:47:41.375Z,2.80
2018-04-17T16:50:09.810Z,3.93
2018-04-17T16:52:38.023Z,33.90
2018-04-17T16:55:06.295Z,9.53
2018-04-17T16:57:34.514Z,21.77
2018-04-17T17:00:03.044Z,26.37
2018-04-17T17:02:31.399Z,12.20
2018-04-17T17:04:59.623Z,35.50
2018-04-17T17:07:27.845Z,57.77
2018-04-17T17:09:56.104Z,85.23
2018-04-17T17:12:24.439Z,60.37
2018-04-17T17:14:52.753Z,62.07
2018-04-17T17:17:20.976Z,57.27
2018-04-17T17:19:49.221Z,53.47
2018-04-17T17:22:17.442Z,40.57
2018-04-17T17:24:45.700Z,63.70
2018-04-17T17:27:13.954Z,74.40
2018-04-17T17:29:42.229Z,38.00
2018-04-17T17:32:10.489Z,29.90
2018-04-17T17:34:38.702Z,40.33
2018-04-17T17:37:07.296Z,55.57
2018-04-17T17:39:35.520Z,19.23
2018-04-17T17:42:03.817Z,17.83
2018-04-17T17:44:32.123Z,38.77
2018-04-17T17:47:01.102Z,36.17
2018-04-17T17:49:30.112Z,14.63
2018-04-17T17:51:58.364Z,26.13
2018-04-17T17:54:27.364Z,38.03
2018-04-17T17:56:55.576Z,39.03
2018-04-17T17:59:23.841Z,48.70
2018-04-17T18:01:52.077Z,80.17
2018-04-17T18:04:21.085Z,101.27
2018-04-17T18:06:49.335Z,93.13
2018-04-17T18:09:18.382Z,98.73
2018-04-17T18:11:46.672Z,80.07
2018-04-17T18:14:14.943Z,90.83
2018-04-17T18:16:46.237Z,111.33
2018-04-17T18:19:14.514Z,69.53
2018-04-17T18:21:42.894Z,78.27
2018-04-17T18:24:11.880Z,89.17
2018-04-17T18:26:41.159Z,116.23
2018-04-17T18:29:09.392Z,94.67
2018-04-17T18:31:37.613Z,56.97
2018-04-17T18:34:05.850Z,55.97
2018-04-17T18:36:34.131Z,48.80
2018-04-17T18:39:02.387Z,32.53
2018-04-17T18:41:30.631Z,36.13
2018-04-17T18:43:59.643Z,23.40
2018-04-17T18:46:27.953Z,15.87
2018-04-17T18:48:56.149Z,18.17
2018-04-17T18:51:24.412Z,17.17
2018-04-17T18:53:52.658Z,15.50
2018-04-17T18:56:20.910Z,84.07
2018-04-17T18:58:49.876Z,60.83
2018-04-17T19:01:18.108Z,136.10
2018-04-17T19:03:46.392Z,152.37
2018-04-17T19:06:14.703Z,63.80
2018-04-17T19:08:42.948Z,64.60
2018-04-17T19:11:11.260Z,66.47
2018-04-17T19:13:39.739Z,67.67
2018-04-17T19:16:07.985Z,54.33
2018-04-17T19:18:36.219Z,20.63
2018-04-17T19:21:04.496Z,22.30
2018-04-17T19:23:32.883Z,18.03
2018-04-17T19:26:01.133Z,15.00
2018-04-17T19:28:30.117Z,13.33
2018-04-17T19:30:59.119Z,6.10
2018-04-17T19:33:28.117Z,13.70
2018-04-17T19:35:56.426Z,7.93
2018-04-17T19:38:24.656Z,9.83
2018-04-17T19:40:53.684Z,11.57
2018-04-17T19:43:21.947Z,6.63
2018-04-17T19:45:50.209Z,7.03
2018-04-17T19:48:19.350Z,8.07
2018-04-17T19:50:47.579Z,6.60
2018-04-17T19:53:16.635Z,6.67
2018-04-17T19:55:45.045Z,9.23
2018-04-17T19:58:14.130Z,5.97
2018-04-17T20:00:42.370Z,6.40
2018-04-17T20:03:10.822Z,6.27
2018-04-17T20:05:39.089Z,5.50
2018-04-17T20:08:07.354Z,5.27
2018-04-17T20:10:35.613Z,5.67
2018-04-17T20:13:03.841Z,6.00
2018-04-17T20:15:32.141Z,8.50
2018-04-17T20:18:00.360Z,20.17
2018-04-17T20:20:28.728Z,41.70
2018-04-17T20:22:56.940Z,31.57
2018-04-17T20:25:25.327Z,44.97
2018-04-17T20:27:53.570Z,32.70
2018-04-17T20:30:21.798Z,40.33
2018-04-17T20:32:50.042Z,20.97
2018-04-17T20:35:18.284Z,22.00
2018-04-17T20:37:47.287Z,19.93
2018-04-17T20:40:15.599Z,17.27
2018-04-17T20:42:43.875Z,11.60
2018-04-17T20:45:12.104Z,10.90
2018-04-17T20:47:41.100Z,7.43
2018-04-17T20:50:10.221Z,8.40
2018-04-17T20:52:38.492Z,7.43
2018-04-17T20:55:06.855Z,6.43
2018-04-17T20:57:35.099Z,6.90
2018-04-17T21:00:03.720Z,6.67
2018-04-17T21:02:32.047Z,6.43
2018-04-17T21:05:00.294Z,5.77
2018-04-17T21:07:28.531Z,5.00
2018-04-17T21:09:57.882Z,5.30
2018-04-17T21:12:26.134Z,5.20
2018-04-17T21:14:55.107Z,5.60
2018-04-17T21:17:23.331Z,7.57
2018-04-17T21:19:51.566Z,10.30
2018-04-17T21:22:19.811Z,10.03
2018-04-17T21:24:48.824Z,10.33
2018-04-17T21:27:17.058Z,10.90
2018-04-17T21:29:45.283Z,7.40
2018-04-17T21:32:13.537Z,14.47
2018-04-17T21:34:42.531Z,15.23
2018-04-17T21:37:11.568Z,15.90
2018-04-17T21:39:39.812Z,12.33
2018-04-17T21:42:08.127Z,8.30
2018-04-17T21:44:36.460Z,7.97
2018-04-17T21:47:04.674Z,7.10
2018-04-17T21:49:32.925Z,6.03
2018-04-17T21:52:01.208Z,5.50
2018-04-17T21:54:29.494Z,7.10
2018-04-17T21:56:57.697Z,4.80
2018-04-17T21:59:25.928Z,12.50
2018-04-17T22:01:54.229Z,12.90
2018-04-17T22:04:22.470Z,7.47
2018-04-17T22:06:50.732Z,10.47
2018-04-17T22:09:20.056Z,6.60
2018-04-17T22:11:48.312Z,6.80
2018-04-17T22:14:16.809Z,9.43
2018-04-17T22:16:45.088Z,10.23
2018-04-17T22:19:13.678Z,8.03
2018-04-17T22:21:41.928Z,12.70
2018-04-17T22:24:10.632Z,6.23
2018-04-17T22:26:38.864Z,7.23
2018-04-17T22:29:07.089Z,4.77
2018-04-17T22:31:35.328Z,4.50
2018-04-17T22:51:20.820Z,4.20
2018-04-17T22:53:49.829Z,4.47
2018-04-17T22:56:18.043Z,4.17
2018-04-17T22:58:46.267Z,4.30
2018-04-17T23:01:15.286Z,5.70
2018-04-17T23:03:43.540Z,6.60
2018-04-17T23:06:11.832Z,6.10
2018-04-17T23:08:40.060Z,4.47
2018-04-17T23:11:08.281Z,7.90
2018-04-17T23:13:36.511Z,4.83
2018-04-17T23:16:04.724Z,5.53
2018-04-17T23:18:32.960Z,4.53
2018-04-17T23:21:01.926Z,5.40
2018-04-17T23:23:30.148Z,6.43
2018-04-17T23:25:58.439Z,9.27
2018-04-17T23:28:26.824Z,7.47
2018-04-17T23:30:55.057Z,5.10
2018-04-17T23:33:23.287Z,4.73
2018-04-17T23:35:52.394Z,6.43
2018-04-17T23:38:20.676Z,5.73
2018-04-17T23:40:48.928Z,5.97
2018-04-17T23:43:17.180Z,5.20
2018-04-17T23:45:45.464Z,5.23
2018-04-17T23:48:13.740Z,6.10
2018-04-17T23:50:41.949Z,6.07
2018-04-17T23:53:10.163Z,5.23
